createdAt,value
2019-02-24T00:02:02.600Z,14.27
2019-02-24T00:04:32.740Z,14.30
2019-02-24T00:07:03.062Z,13.33
2019-02-24T00:09:33.220Z,13.27
2019-02-24T00:12:03.400Z,13.50
2019-02-24T00:14:33.300Z,13.93
2019-02-24T00:17:03.580Z,14.87
2019-02-24T00:19:33.700Z,14.53
2019-02-24T00:22:03.948Z,13.87
2019-02-24T00:24:35.241Z,15.17
2019-02-24T00:27:05.481Z,13.70
2019-02-24T00:29:35.503Z,13.97
2019-02-24T00:32:05.665Z,15.30
2019-02-24T00:34:35.708Z,15.63
2019-02-24T00:37:05.942Z,14.80
2019-02-24T00:39:37.869Z,13.53
2019-02-24T00:42:07.300Z,14.10
2019-02-24T00:44:37.160Z,14.80
2019-02-24T00:47:07.180Z,14.57
2019-02-24T00:49:38.162Z,16.23
2019-02-24T00:52:08.501Z,16.23
2019-02-24T00:54:38.620Z,15.00
2019-02-24T00:57:09.029Z,15.33
2019-02-24T00:59:39.289Z,14.70
2019-02-24T01:02:09.560Z,15.03
2019-02-24T01:04:40.818Z,15.70
2019-02-24T01:07:11.002Z,15.93
2019-02-24T01:09:41.164Z,15.93
2019-02-24T01:12:11.521Z,16.33
2019-02-24T01:14:41.421Z,15.10
2019-02-24T01:17:11.260Z,14.47
2019-02-24T01:19:41.371Z,14.37
2019-02-24T01:22:11.638Z,14.77
2019-02-24T01:24:41.778Z,13.50
2019-02-24T01:27:12.056Z,14.37
2019-02-24T01:29:42.594Z,12.90
2019-02-24T01:32:12.834Z,14.23
2019-02-24T01:34:43.046Z,15.03
2019-02-24T01:37:13.330Z,13.77
2019-02-24T01:39:43.384Z,14.23
2019-02-24T01:42:13.727Z,14.37
2019-02-24T01:44:43.718Z,12.73
2019-02-24T01:47:13.966Z,14.03
2019-02-24T01:49:44.083Z,13.23
2019-02-24T01:52:14.406Z,13.97
2019-02-24T01:54:44.529Z,13.33
2019-02-24T01:57:16.874Z,13.37
2019-02-24T01:59:47.085Z,13.43
2019-02-24T02:02:17.099Z,13.70
2019-02-24T02:04:47.265Z,14.50
2019-02-24T02:07:17.386Z,13.33
2019-02-24T02:09:47.594Z,14.60
2019-02-24T02:12:18.129Z,15.13
2019-02-24T02:14:48.136Z,13.63
2019-02-24T02:17:18.273Z,13.67
2019-02-24T02:19:48.688Z,13.27
2019-02-24T02:22:19.014Z,14.03
2019-02-24T02:24:49.301Z,12.90
2019-02-24T02:27:19.456Z,13.80
2019-02-24T02:29:49.661Z,13.40
2019-02-24T02:32:19.801Z,13.40
2019-02-24T02:34:49.884Z,13.80
2019-02-24T02:37:20.322Z,13.67
2019-02-24T02:39:49.983Z,13.30
2019-02-24T02:42:20.154Z,13.37
2019-02-24T02:44:50.430Z,13.30
2019-02-24T02:47:20.708Z,13.33
2019-02-24T02:49:50.972Z,14.10
2019-02-24T02:52:21.138Z,14.33
2019-02-24T02:54:51.152Z,14.10
2019-02-24T02:57:21.380Z,15.83
2019-02-24T02:59:51.698Z,14.43
2019-02-24T03:02:24.685Z,14.57
2019-02-24T03:04:53.707Z,13.77
2019-02-24T03:07:25.519Z,14.90
2019-02-24T03:09:55.786Z,14.50
2019-02-24T03:12:26.142Z,15.80
2019-02-24T03:14:56.235Z,16.43
2019-02-24T03:17:26.640Z,14.63
2019-02-24T03:19:56.687Z,14.77
2019-02-24T03:22:26.801Z,16.43
2019-02-24T03:24:56.963Z,15.70
2019-02-24T03:27:27.007Z,15.67
2019-02-24T03:29:57.226Z,14.77
2019-02-24T03:32:27.516Z,15.77
2019-02-24T03:34:57.559Z,15.73
2019-02-24T03:37:27.779Z,16.37
2019-02-24T03:39:57.840Z,16.17
2019-02-24T03:42:27.900Z,17.07
2019-02-24T03:44:57.926Z,16.60
2019-02-24T03:47:28.211Z,16.33
2019-02-24T03:49:58.503Z,16.87
2019-02-24T03:52:28.591Z,17.63
2019-02-24T03:55:01.165Z,17.80
2019-02-24T03:57:31.803Z,17.40
2019-02-24T04:00:02.058Z,17.73
2019-02-24T04:02:33.575Z,17.00
2019-02-24T04:05:03.798Z,18.03
2019-02-24T04:07:34.232Z,17.47
2019-02-24T04:10:05.116Z,15.57
2019-02-24T04:12:35.199Z,17.60
2019-02-24T04:15:06.557Z,18.37
2019-02-24T04:17:36.795Z,17.93
2019-02-24T04:20:07.608Z,17.43
2019-02-24T04:22:37.945Z,17.50
2019-02-24T04:25:08.010Z,18.13
2019-02-24T04:27:39.067Z,16.53
2019-02-24T04:30:09.536Z,17.67
2019-02-24T04:32:39.898Z,17.13
2019-02-24T04:35:10.069Z,18.23
2019-02-24T04:37:40.322Z,17.10
2019-02-24T04:40:11.242Z,17.37
2019-02-24T04:42:41.576Z,17.27
2019-02-24T04:45:11.581Z,16.73
2019-02-24T04:47:41.712Z,18.10
2019-02-24T04:50:11.901Z,17.27
2019-02-24T04:52:42.106Z,18.40
2019-02-24T04:55:12.238Z,17.27
2019-02-24T04:57:42.674Z,17.33
2019-02-24T05:00:12.626Z,17.57
2019-02-24T05:02:42.849Z,17.50
2019-02-24T05:05:12.516Z,17.53
2019-02-24T05:07:42.642Z,17.43
2019-02-24T05:10:12.875Z,18.40
2019-02-24T05:12:43.110Z,17.80
2019-02-24T05:15:13.301Z,18.17
2019-02-24T05:17:43.643Z,17.63
2019-02-24T05:20:13.594Z,17.90
2019-02-24T05:22:43.781Z,18.80
2019-02-24T05:25:13.980Z,17.60
2019-02-24T05:27:43.953Z,18.10
2019-02-24T05:30:14.105Z,18.77
2019-02-24T05:32:44.315Z,18.63
2019-02-24T05:35:15.653Z,18.63
2019-02-24T05:37:45.927Z,17.60
2019-02-24T05:40:15.941Z,18.13
2019-02-24T05:42:46.186Z,17.50
2019-02-24T05:45:16.428Z,16.30
2019-02-24T05:47:46.582Z,16.37
2019-02-24T05:50:16.698Z,18.80
2019-02-24T05:52:46.934Z,16.63
2019-02-24T05:55:18.558Z,17.47
2019-02-24T05:57:48.787Z,18.10
2019-02-24T06:00:19.017Z,16.50
2019-02-24T06:02:49.142Z,18.50
2019-02-24T06:05:20.582Z,17.03
2019-02-24T06:07:50.719Z,16.37
2019-02-24T06:10:21.060Z,18.07
2019-02-24T06:12:51.644Z,17.63
2019-02-24T06:15:22.840Z,17.30
2019-02-24T06:17:53.143Z,18.37
2019-02-24T06:20:23.239Z,18.17
2019-02-24T06:22:53.467Z,17.80
2019-02-24T06:25:23.531Z,17.83
2019-02-24T06:27:53.690Z,19.07
2019-02-24T06:30:23.785Z,18.13
2019-02-24T06:32:53.947Z,19.43
2019-02-24T06:35:24.337Z,18.70
2019-02-24T06:37:54.565Z,19.90
2019-02-24T06:40:24.634Z,17.67
2019-02-24T06:42:54.730Z,17.77
2019-02-24T06:45:25.077Z,17.03
2019-02-24T06:47:55.329Z,16.73
2019-02-24T06:50:35.078Z,17.17
2019-02-24T06:52:59.303Z,16.27
2019-02-24T06:55:29.251Z,17.40
2019-02-24T06:57:59.667Z,16.73
2019-02-24T07:00:29.526Z,17.33
2019-02-24T07:02:59.633Z,17.27
2019-02-24T07:05:30.010Z,16.67
2019-02-24T07:08:00.267Z,16.43
2019-02-24T07:10:30.707Z,17.10
2019-02-24T07:13:00.634Z,16.97
2019-02-24T07:15:30.555Z,16.60
2019-02-24T07:18:00.880Z,17.77
2019-02-24T07:20:30.515Z,16.47
2019-02-24T07:23:00.662Z,17.00
2019-02-24T07:25:30.706Z,15.87
2019-02-24T07:28:00.826Z,17.30
2019-02-24T07:30:31.062Z,17.53
2019-02-24T07:33:01.330Z,16.27
2019-02-24T07:35:31.319Z,16.93
2019-02-24T07:38:01.846Z,17.50
2019-02-24T07:40:32.107Z,16.93
2019-02-24T07:43:02.269Z,16.90
2019-02-24T07:45:32.445Z,17.30
2019-02-24T07:48:02.781Z,15.30
2019-02-24T07:50:32.786Z,14.73
2019-02-24T07:53:02.741Z,16.03
2019-02-24T07:55:32.932Z,17.43
2019-02-24T07:58:02.742Z,20.60
2019-02-24T08:00:34.375Z,17.30
2019-02-24T08:03:05.090Z,16.03
2019-02-24T08:05:35.555Z,15.90
2019-02-24T08:08:06.034Z,15.73
2019-02-24T08:10:36.241Z,17.70
2019-02-24T08:13:07.297Z,15.57
2019-02-24T08:15:37.400Z,14.87
2019-02-24T08:18:07.565Z,15.90
2019-02-24T08:20:37.676Z,16.20
2019-02-24T08:23:07.824Z,15.97
2019-02-24T08:25:38.082Z,14.33
2019-02-24T08:28:08.357Z,15.43
2019-02-24T08:30:41.678Z,15.73
2019-02-24T08:33:10.279Z,16.60
2019-02-24T08:35:39.946Z,15.70
2019-02-24T08:38:09.909Z,16.20
2019-02-24T08:40:41.794Z,17.13
2019-02-24T08:43:12.013Z,16.60
2019-02-24T08:45:42.156Z,17.33
2019-02-24T08:48:12.735Z,14.47
2019-02-24T08:50:42.856Z,15.90
2019-02-24T08:53:12.795Z,17.20
2019-02-24T08:55:43.151Z,16.03
2019-02-24T08:58:13.119Z,15.07
2019-02-24T09:00:50.720Z,15.13
2019-02-24T09:03:14.470Z,15.27
2019-02-24T09:05:44.907Z,15.13
2019-02-24T09:08:14.820Z,15.57
2019-02-24T09:10:45.116Z,15.47
2019-02-24T09:13:16.597Z,15.03
2019-02-24T09:15:47.133Z,15.30
2019-02-24T09:18:17.850Z,15.50
2019-02-24T09:20:48.772Z,15.27
2019-02-24T09:23:19.338Z,15.83
2019-02-24T09:25:50.130Z,15.43
2019-02-24T09:28:21.386Z,14.30
2019-02-24T09:31:00.143Z,14.63
2019-02-24T09:33:23.820Z,17.00
2019-02-24T09:35:54.257Z,15.53
2019-02-24T09:38:24.662Z,14.67
2019-02-24T09:40:55.460Z,15.53
2019-02-24T09:43:25.535Z,14.83
2019-02-24T09:45:55.559Z,14.30
2019-02-24T09:48:25.705Z,28.37
2019-02-24T09:50:55.759Z,20.67
2019-02-24T09:53:25.721Z,22.57
2019-02-24T09:55:55.864Z,17.47
2019-02-24T09:58:25.806Z,16.13
2019-02-24T10:00:55.925Z,19.13
2019-02-24T10:03:25.833Z,16.23
2019-02-24T10:05:56.018Z,14.73
2019-02-24T10:08:26.219Z,15.13
2019-02-24T10:10:56.316Z,15.97
2019-02-24T10:13:26.365Z,17.23
2019-02-24T10:15:56.432Z,14.83
2019-02-24T10:18:26.535Z,16.30
2019-02-24T10:20:56.657Z,14.93
2019-02-24T10:23:27.162Z,13.73
2019-02-24T10:25:57.119Z,13.87
2019-02-24T10:28:28.083Z,14.47
2019-02-24T10:30:58.175Z,13.40
2019-02-24T10:33:28.163Z,14.53
2019-02-24T10:35:58.336Z,13.97
2019-02-24T10:38:28.956Z,13.53
2019-02-24T10:40:59.102Z,13.67
2019-02-24T10:43:29.239Z,14.03
2019-02-24T10:45:59.372Z,14.27
2019-02-24T10:48:34.359Z,13.90
2019-02-24T10:51:11.462Z,14.03
2019-02-24T10:53:42.989Z,14.57
2019-02-24T10:56:14.505Z,14.00
2019-02-24T10:58:45.581Z,13.90
2019-02-24T11:01:15.676Z,13.97
2019-02-24T11:03:46.779Z,14.30
2019-02-24T11:06:16.689Z,14.43
2019-02-24T11:08:46.739Z,15.20
2019-02-24T11:11:16.687Z,13.17
2019-02-24T11:13:46.789Z,14.77
2019-02-24T11:16:17.002Z,12.83
2019-02-24T11:18:47.186Z,15.30
2019-02-24T11:21:17.401Z,15.40
2019-02-24T11:23:47.462Z,14.70
2019-02-24T11:26:17.549Z,14.83
2019-02-24T11:28:47.812Z,14.70
2019-02-24T11:31:18.088Z,13.57
2019-02-24T11:33:48.148Z,15.03
2019-02-24T11:36:18.235Z,15.73
2019-02-24T11:38:48.653Z,13.83
2019-02-24T11:41:18.990Z,14.97
2019-02-24T11:43:50.066Z,14.27
2019-02-24T11:46:20.433Z,14.90
2019-02-24T11:48:50.134Z,15.87
2019-02-24T11:51:20.169Z,14.50
2019-02-24T11:53:50.779Z,15.60
2019-02-24T11:56:21.175Z,13.83
2019-02-24T11:58:51.301Z,15.10
2019-02-24T12:01:21.446Z,14.20
2019-02-24T12:03:51.480Z,15.03
2019-02-24T12:06:21.516Z,14.60
2019-02-24T12:08:51.578Z,14.30
2019-02-24T12:11:21.559Z,15.03
2019-02-24T12:13:52.042Z,14.93
2019-02-24T12:16:22.153Z,14.73
2019-02-24T12:18:52.301Z,15.20
2019-02-24T12:21:23.503Z,15.13
2019-02-24T12:23:53.512Z,15.07
2019-02-24T12:26:23.546Z,16.00
2019-02-24T12:28:53.682Z,16.17
2019-02-24T12:31:24.021Z,15.73
2019-02-24T12:33:54.216Z,14.77
2019-02-24T12:36:24.320Z,15.70
2019-02-24T12:38:54.698Z,16.40
2019-02-24T12:41:25.193Z,17.97
2019-02-24T12:43:55.338Z,18.63
2019-02-24T12:46:25.423Z,19.07
2019-02-24T12:48:55.640Z,18.07
2019-02-24T12:51:25.596Z,16.47
2019-02-24T12:53:55.646Z,17.17
2019-02-24T12:56:25.962Z,18.43
2019-02-24T12:58:56.317Z,18.67
2019-02-24T13:01:26.716Z,18.53
2019-02-24T13:03:57.435Z,17.93
2019-02-24T13:06:27.408Z,15.80
2019-02-24T13:08:57.917Z,16.63
2019-02-24T13:11:27.896Z,15.93
2019-02-24T13:13:57.957Z,17.60
2019-02-24T13:16:28.024Z,18.93
2019-02-24T13:18:58.160Z,18.00
2019-02-24T13:21:28.059Z,20.77
2019-02-24T13:23:58.371Z,20.70
2019-02-24T13:26:27.896Z,19.07
2019-02-24T13:28:57.790Z,19.33
2019-02-24T13:31:27.952Z,16.90
2019-02-24T13:33:58.951Z,15.50
2019-02-24T13:36:28.978Z,16.20
2019-02-24T13:38:59.013Z,20.63
2019-02-24T13:41:29.124Z,18.30
2019-02-24T13:43:59.300Z,16.97
2019-02-24T13:46:29.320Z,18.00
2019-02-24T13:48:59.305Z,18.60
2019-02-24T13:51:29.803Z,18.57
2019-02-24T13:53:59.699Z,18.53
2019-02-24T13:56:29.827Z,18.00
2019-02-24T13:58:59.850Z,18.47
2019-02-24T14:01:30.183Z,18.80
2019-02-24T14:04:00.285Z,19.20
2019-02-24T14:06:30.559Z,19.03
2019-02-24T14:09:00.745Z,19.77
2019-02-24T14:11:32.404Z,21.20
2019-02-24T14:14:02.579Z,20.77
2019-02-24T14:16:32.932Z,19.33
2019-02-24T14:19:02.847Z,21.17
2019-02-24T14:21:33.127Z,20.43
2019-02-24T14:24:03.191Z,18.77
2019-02-24T14:26:33.292Z,19.30
2019-02-24T14:29:03.820Z,19.97
2019-02-24T14:31:34.003Z,18.83
2019-02-24T14:34:04.237Z,21.40
2019-02-24T14:36:36.077Z,21.03
2019-02-24T14:39:06.057Z,21.57
2019-02-24T14:41:37.820Z,23.20
2019-02-24T14:44:08.737Z,23.50
2019-02-24T14:46:39.242Z,22.67
2019-02-24T14:49:09.363Z,21.30
2019-02-24T14:51:39.672Z,22.50
2019-02-24T14:54:09.765Z,22.93
2019-02-24T14:56:40.153Z,22.30
2019-02-24T14:59:10.574Z,20.33
2019-02-24T15:01:40.693Z,20.97
2019-02-24T15:04:11.055Z,23.23
2019-02-24T15:06:41.132Z,23.50
2019-02-24T15:09:11.341Z,25.00
2019-02-24T15:11:41.559Z,25.10
2019-02-24T15:14:11.821Z,23.17
2019-02-24T15:16:42.347Z,23.43
2019-02-24T15:19:12.466Z,23.40
2019-02-24T15:21:43.239Z,21.50
2019-02-24T15:24:14.742Z,21.53
2019-02-24T15:26:44.865Z,20.10
2019-02-24T15:29:15.028Z,19.67
2019-02-24T15:31:46.729Z,18.60
2019-02-24T15:34:16.899Z,19.83
2019-02-24T15:36:47.177Z,18.50
2019-02-24T15:39:18.126Z,16.47
2019-02-24T15:41:48.471Z,17.17
2019-02-24T15:44:18.495Z,17.87
2019-02-24T15:46:48.668Z,18.53
2019-02-24T15:49:18.868Z,17.67
2019-02-24T15:51:49.376Z,19.90
2019-02-24T15:54:19.527Z,18.83
2019-02-24T15:56:49.833Z,20.37
2019-02-24T15:59:20.161Z,21.17
2019-02-24T16:01:50.442Z,20.90
2019-02-24T16:04:21.079Z,21.10
2019-02-24T16:06:51.625Z,27.97
2019-02-24T16:09:21.863Z,27.00
2019-02-24T16:11:51.912Z,26.70
2019-02-24T16:14:22.165Z,27.00
2019-02-24T16:16:52.335Z,26.13
2019-02-24T16:19:22.306Z,26.80
2019-02-24T16:21:52.500Z,25.57
2019-02-24T16:24:22.756Z,27.63
2019-02-24T16:26:53.188Z,29.18
2019-02-24T16:29:23.375Z,27.07
2019-02-24T16:31:53.683Z,28.43
2019-02-24T16:34:24.051Z,30.20
2019-02-24T16:36:54.267Z,28.27
2019-02-24T16:39:24.469Z,30.80
2019-02-24T16:41:54.829Z,34.50
2019-02-24T16:44:25.196Z,30.53
2019-02-24T16:46:56.473Z,29.17
2019-02-24T16:49:26.698Z,28.87
2019-02-24T16:51:56.914Z,29.57
2019-02-24T16:54:27.266Z,27.63
2019-02-24T16:57:04.750Z,27.57
2019-02-24T16:59:29.396Z,26.50
2019-02-24T17:01:59.538Z,25.93
2019-02-24T17:04:31.062Z,27.57
2019-02-24T17:07:01.628Z,27.87
2019-02-24T17:09:31.897Z,27.07
2019-02-24T17:12:02.284Z,24.57
2019-02-24T17:14:32.429Z,24.43
2019-02-24T17:17:02.753Z,24.90
2019-02-24T17:19:34.229Z,24.07
2019-02-24T17:22:04.739Z,23.20
2019-02-24T17:24:36.100Z,24.70
2019-02-24T17:27:09.314Z,23.23
2019-02-24T17:29:39.455Z,24.13
2019-02-24T17:32:10.818Z,25.90
2019-02-24T17:34:40.713Z,28.23
2019-02-24T17:37:19.665Z,29.33
2019-02-24T17:39:42.743Z,28.40
2019-02-24T17:42:12.995Z,26.13
2019-02-24T17:44:44.480Z,26.40
2019-02-24T17:47:14.572Z,24.00
2019-02-24T17:49:44.561Z,23.67
2019-02-24T17:52:14.666Z,23.80
2019-02-24T17:54:44.590Z,21.40
2019-02-24T17:57:14.938Z,21.83
2019-02-24T17:59:45.093Z,20.67
2019-02-24T18:02:15.182Z,20.57
2019-02-24T18:04:45.523Z,20.97
2019-02-24T18:07:15.874Z,21.03
2019-02-24T18:09:46.081Z,20.27
2019-02-24T18:12:16.090Z,21.23
2019-02-24T18:14:45.976Z,21.60
2019-02-24T18:17:15.975Z,21.63
2019-02-24T18:19:46.020Z,23.17
2019-02-24T18:22:19.002Z,23.73
2019-02-24T18:24:49.064Z,25.13
2019-02-24T18:27:19.011Z,25.63
2019-02-24T18:29:49.257Z,25.57
2019-02-24T18:32:19.251Z,27.87
2019-02-24T18:34:49.387Z,27.53
2019-02-24T18:37:19.466Z,27.13
2019-02-24T18:39:50.865Z,27.50
2019-02-24T18:42:20.845Z,30.10
2019-02-24T18:44:50.988Z,31.93
2019-02-24T18:47:20.984Z,36.93
2019-02-24T18:49:51.211Z,37.43
2019-02-24T18:52:21.841Z,40.40
2019-02-24T18:54:54.497Z,40.20
2019-02-24T18:57:24.521Z,39.30
2019-02-24T18:59:54.095Z,38.27
2019-02-24T19:02:24.085Z,35.33
2019-02-24T19:04:54.370Z,36.00
2019-02-24T19:07:24.428Z,37.67
2019-02-24T19:09:54.530Z,36.13
2019-02-24T19:12:24.704Z,36.27
2019-02-24T19:14:55.070Z,35.83
2019-02-24T19:17:25.891Z,37.53
2019-02-24T19:19:56.559Z,38.57
2019-02-24T19:22:26.961Z,36.77
2019-02-24T19:24:58.178Z,36.40
2019-02-24T19:27:28.526Z,37.57
2019-02-24T19:29:58.637Z,36.20
2019-02-24T19:32:28.530Z,34.77
2019-02-24T19:34:58.263Z,35.53
2019-02-24T19:37:28.442Z,35.20
2019-02-24T19:39:58.683Z,34.47
2019-02-24T19:42:28.431Z,35.00
2019-02-24T19:44:58.507Z,34.63
2019-02-24T19:47:29.757Z,33.63
2019-02-24T19:49:59.770Z,31.50
2019-02-24T19:52:30.103Z,32.43
2019-02-24T19:55:00.428Z,34.53
2019-02-24T19:57:31.973Z,33.17
2019-02-24T20:00:01.714Z,32.67
2019-02-24T20:02:31.829Z,34.50
2019-02-24T20:05:01.848Z,35.37
2019-02-24T20:07:33.297Z,35.80
2019-02-24T20:10:03.079Z,35.40
2019-02-24T20:12:33.230Z,37.37
2019-02-24T20:15:03.300Z,40.10
2019-02-24T20:17:34.539Z,44.47
2019-02-24T20:20:07.100Z,45.73
2019-02-24T20:22:37.447Z,47.27
2019-02-24T20:25:10.228Z,52.08
2019-02-24T20:27:40.509Z,42.57
2019-02-24T20:30:14.670Z,44.57
2019-02-24T20:32:44.984Z,41.37
2019-02-24T20:35:15.343Z,42.20
2019-02-24T20:37:45.720Z,38.97
2019-02-24T20:40:16.383Z,39.23
2019-02-24T20:42:49.646Z,38.83
2019-02-24T20:45:22.824Z,38.17
2019-02-24T20:47:54.564Z,40.30
2019-02-24T20:50:31.101Z,53.28
2019-02-24T20:53:02.295Z,43.10
2019-02-24T20:55:33.687Z,43.13
2019-02-24T20:58:03.650Z,42.00
2019-02-24T21:00:41.497Z,43.83
2019-02-24T21:03:11.944Z,40.60
2019-02-24T21:05:42.673Z,44.40
2019-02-24T21:08:12.976Z,41.50
2019-02-24T21:10:43.487Z,44.13
2019-02-24T21:13:16.938Z,45.93
2019-02-24T21:15:47.560Z,46.60
2019-02-24T21:18:18.246Z,46.27
2019-02-24T21:20:48.838Z,44.97
2019-02-24T21:23:19.278Z,44.67
2019-02-24T21:25:49.205Z,46.37
2019-02-24T21:28:22.119Z,45.13
2019-02-24T21:30:52.806Z,39.80
2019-02-24T21:33:23.238Z,39.90
2019-02-24T21:35:53.722Z,37.50
2019-02-24T21:38:25.398Z,37.27
2019-02-24T21:40:55.674Z,36.03
2019-02-24T21:43:25.730Z,34.93
2019-02-24T21:45:58.656Z,35.53
2019-02-24T21:48:29.079Z,35.73
2019-02-24T21:50:59.234Z,36.57
2019-02-24T21:53:29.337Z,35.97
2019-02-24T21:55:59.539Z,35.23
2019-02-24T21:58:30.280Z,34.43
2019-02-24T22:01:00.016Z,35.23
2019-02-24T22:03:30.096Z,36.70
2019-02-24T22:06:00.279Z,35.90
2019-02-24T22:08:30.456Z,35.30
2019-02-24T22:11:00.508Z,35.13
2019-02-24T22:13:30.358Z,35.17
2019-02-24T22:16:00.442Z,36.00
2019-02-24T22:18:30.407Z,34.87
2019-02-24T22:21:00.099Z,34.73
2019-02-24T22:23:30.227Z,32.27
2019-02-24T22:25:59.794Z,33.03
2019-02-24T22:28:30.365Z,31.27
2019-02-24T22:31:00.387Z,31.87
2019-02-24T22:33:31.465Z,31.27
2019-02-24T22:36:01.528Z,31.10
2019-02-24T22:38:31.865Z,30.53
2019-02-24T22:41:02.046Z,30.20
2019-02-24T22:43:32.047Z,29.50
2019-02-24T22:46:01.713Z,26.80
2019-02-24T22:48:33.565Z,28.77
2019-02-24T22:51:03.650Z,27.87
2019-02-24T22:53:35.230Z,26.83
2019-02-24T22:56:05.388Z,27.00
2019-02-24T22:58:35.805Z,26.93
2019-02-24T23:01:07.025Z,28.93
2019-02-24T23:03:38.965Z,27.37
2019-02-24T23:06:09.614Z,27.90
2019-02-24T23:08:40.306Z,29.33
2019-02-24T23:11:10.272Z,28.87
2019-02-24T23:13:42.665Z,30.40
2019-02-24T23:16:12.645Z,30.40
2019-02-24T23:18:42.885Z,32.87
2019-02-24T23:21:12.445Z,32.20
2019-02-24T23:23:42.865Z,31.83
2019-02-24T23:26:14.414Z,31.60
2019-02-24T23:28:44.691Z,31.40
2019-02-24T23:31:14.884Z,30.50
2019-02-24T23:33:45.036Z,31.10
2019-02-24T23:36:15.178Z,32.23
2019-02-24T23:38:45.619Z,30.80
2019-02-24T23:41:16.073Z,30.27
2019-02-24T23:43:46.055Z,29.87
2019-02-24T23:46:16.166Z,31.07
2019-02-24T23:48:46.194Z,31.73
2019-02-24T23:51:16.418Z,30.47
2019-02-24T23:53:46.215Z,30.37
2019-02-24T23:56:16.275Z,30.03
2019-02-24T23:58:46.633Z,30.10
